createdAt,value
2022-11-07T00:01:39.646Z,100734.04
2022-11-07T00:04:06.244Z,100731.83
2022-11-07T00:06:33.160Z,100722.16
2022-11-07T00:08:59.619Z,100715.84
2022-11-07T00:11:26.053Z,100720.02
2022-11-07T00:13:52.431Z,100747.05
2022-11-07T00:16:19.139Z,100769.52
2022-11-07T00:18:45.661Z,100765.60
2022-11-07T00:21:12.117Z,100742.05
2022-11-07T00:23:40.653Z,100730.07
2022-11-07T00:26:10.353Z,100722.80
2022-11-07T00:28:39.564Z,100730.00
2022-11-07T00:31:07.967Z,100738.02
2022-11-07T00:33:35.092Z,100730.00
2022-11-07T00:36:01.628Z,100721.50
2022-11-07T00:38:28.548Z,100725.90
2022-11-07T00:40:56.571Z,100722.02
2022-11-07T00:43:23.580Z,100716.45
2022-11-07T00:45:50.130Z,100718.83
2022-11-07T00:48:16.587Z,100722.00
2022-11-07T00:50:43.426Z,100717.90
2022-11-07T00:53:10.044Z,100717.18
2022-11-07T00:55:36.581Z,100716.65
2022-11-07T00:58:03.530Z,100714.15
2022-11-07T01:00:30.065Z,100714.89
2022-11-07T01:03:15.584Z,100719.48
2022-11-07T01:05:42.228Z,100722.81
2022-11-07T01:08:08.927Z,100728.85
2022-11-07T01:10:40.509Z,100719.14
2022-11-07T01:13:06.938Z,100706.52
2022-11-07T01:15:33.344Z,100715.48
2022-11-07T01:17:59.778Z,100717.95
2022-11-07T01:20:26.247Z,100708.85
2022-11-07T01:22:52.692Z,100710.73
2022-11-07T01:25:19.182Z,100714.65
2022-11-07T01:27:45.575Z,100706.83
2022-11-07T01:30:12.266Z,100707.92
2022-11-07T01:32:38.791Z,100708.14
2022-11-07T01:35:06.146Z,100705.59
2022-11-07T01:37:32.685Z,100700.04
2022-11-07T01:39:59.147Z,100696.71
2022-11-07T01:42:25.853Z,100693.09
2022-11-07T01:44:58.135Z,100680.88
2022-11-07T01:47:31.114Z,100677.14
2022-11-07T01:49:59.630Z,100673.92
2022-11-07T01:52:31.204Z,100669.08
2022-11-07T01:55:20.161Z,100657.02
2022-11-07T01:57:54.163Z,100650.17
2022-11-07T02:00:23.193Z,100656.56
2022-11-07T02:02:58.920Z,100651.38
2022-11-07T02:05:34.639Z,100648.92
2022-11-07T02:08:04.129Z,100647.85
2022-11-07T02:10:31.382Z,100649.48
2022-11-07T02:12:58.946Z,100656.75
2022-11-07T02:15:26.433Z,100654.78
2022-11-07T02:17:54.270Z,100652.42
2022-11-07T02:20:20.803Z,100647.89
2022-11-07T02:23:10.892Z,100643.60
2022-11-07T02:25:37.445Z,100632.33
2022-11-07T02:28:08.090Z,100633.97
2022-11-07T02:30:34.837Z,100641.05
2022-11-07T02:33:01.951Z,100637.65
2022-11-07T02:35:34.426Z,100641.89
2022-11-07T02:38:04.084Z,100632.33
2022-11-07T02:40:31.186Z,100630.82
2022-11-07T02:42:59.668Z,100631.98
2022-11-07T02:45:29.239Z,100635.42
2022-11-07T02:47:55.915Z,100637.48
2022-11-07T02:50:22.387Z,100634.50
2022-11-07T02:52:48.883Z,100638.52
2022-11-07T02:55:15.625Z,100635.52
2022-11-07T02:57:42.675Z,100634.55
2022-11-07T03:00:11.863Z,100631.09
2022-11-07T03:02:38.956Z,100625.88
2022-11-07T03:05:06.618Z,100630.41
2022-11-07T03:07:33.017Z,100632.29
2022-11-07T03:09:59.432Z,100629.81
2022-11-07T03:12:25.839Z,100634.19
2022-11-07T03:14:52.376Z,100635.37
2022-11-07T03:17:18.862Z,100635.55
2022-11-07T03:19:45.893Z,100632.95
2022-11-07T03:22:12.286Z,100641.69
2022-11-07T03:24:38.740Z,100644.73
2022-11-07T03:27:05.306Z,100646.48
2022-11-07T03:29:32.251Z,100647.35
2022-11-07T03:31:58.664Z,100644.71
2022-11-07T03:34:25.017Z,100644.92
2022-11-07T03:36:51.455Z,100635.04
2022-11-07T03:39:21.856Z,100634.15
2022-11-07T03:41:52.026Z,100631.07
2022-11-07T03:44:18.482Z,100625.73
2022-11-07T03:46:44.924Z,100631.02
2022-11-07T03:49:11.504Z,100629.45
2022-11-07T03:51:38.043Z,100621.89
2022-11-07T03:54:04.576Z,100624.88
2022-11-07T03:56:31.047Z,100627.75
2022-11-07T03:58:57.444Z,100627.35
2022-11-07T04:01:24.074Z,100632.38
2022-11-07T04:03:55.201Z,100638.45
2022-11-07T04:06:22.936Z,100640.75
2022-11-07T04:08:49.630Z,100639.65
2022-11-07T04:11:34.583Z,100636.38
2022-11-07T04:14:19.539Z,100631.09
2022-11-07T04:17:04.591Z,100632.70
2022-11-07T04:19:31.061Z,100630.86
2022-11-07T04:21:57.505Z,100623.76
2022-11-07T04:24:23.941Z,100620.90
2022-11-07T04:27:08.839Z,100619.34
2022-11-07T04:29:35.342Z,100615.76
2022-11-07T04:32:01.753Z,100613.55
2022-11-07T04:34:28.213Z,100611.80
2022-11-07T04:36:54.606Z,100612.50
2022-11-07T04:39:20.974Z,100605.39
2022-11-07T04:41:47.614Z,100607.58
2022-11-07T04:44:14.047Z,100615.41
2022-11-07T04:46:40.469Z,100614.83
2022-11-07T04:49:06.880Z,100611.65
2022-11-07T04:51:33.348Z,100616.83
2022-11-07T04:53:59.767Z,100614.71
2022-11-07T04:56:28.364Z,100610.86
2022-11-07T04:58:58.431Z,100607.95
2022-11-07T05:01:24.796Z,100608.52
2022-11-07T05:03:51.227Z,100613.80
2022-11-07T05:06:18.466Z,100609.33
2022-11-07T05:08:44.872Z,100614.09
2022-11-07T05:11:11.247Z,100612.93
2022-11-07T05:13:37.705Z,100609.06
2022-11-07T05:16:04.652Z,100608.20
2022-11-07T05:18:31.185Z,100609.24
2022-11-07T05:20:57.722Z,100609.26
2022-11-07T05:23:24.668Z,100606.58
2022-11-07T05:25:51.957Z,100602.98
2022-11-07T05:28:29.916Z,100598.48
2022-11-07T05:31:03.411Z,100592.09
2022-11-07T05:33:29.913Z,100594.84
2022-11-07T05:35:56.511Z,100594.09
2022-11-07T05:38:22.929Z,100602.38
2022-11-07T05:40:49.467Z,100605.02
2022-11-07T05:43:16.269Z,100607.28
2022-11-07T05:45:43.083Z,100608.08
2022-11-07T05:48:13.023Z,100616.48
2022-11-07T05:50:40.535Z,100626.10
2022-11-07T05:53:07.759Z,100630.06
2022-11-07T05:55:34.208Z,100628.11
2022-11-07T05:58:06.667Z,100632.48
2022-11-07T06:00:33.636Z,100637.71
2022-11-07T06:03:00.519Z,100640.52
2022-11-07T06:05:28.457Z,100640.00
2022-11-07T06:07:55.219Z,100641.27
2022-11-07T06:10:22.545Z,100643.81
2022-11-07T06:13:00.506Z,100646.36
2022-11-07T06:15:29.242Z,100644.20
2022-11-07T06:17:58.848Z,100641.00
2022-11-07T06:20:25.484Z,100644.16
2022-11-07T06:22:51.897Z,100644.04
2022-11-07T06:25:18.259Z,100637.92
2022-11-07T06:27:44.785Z,100647.41
2022-11-07T06:30:11.698Z,100652.11
2022-11-07T06:32:43.591Z,100654.01
2022-11-07T06:35:10.947Z,100653.73
2022-11-07T06:37:38.140Z,100659.98
2022-11-07T06:40:05.181Z,100665.29
2022-11-07T06:42:32.093Z,100666.44
2022-11-07T06:44:58.736Z,100672.21
2022-11-07T06:47:25.120Z,100670.51
2022-11-07T06:49:51.435Z,100668.55
2022-11-07T06:52:17.931Z,100666.55
2022-11-07T06:54:44.464Z,100668.63
2022-11-07T06:57:10.879Z,100673.46
2022-11-07T06:59:37.332Z,100676.85
2022-11-07T07:02:03.912Z,100683.34
2022-11-07T07:04:30.917Z,100684.11
2022-11-07T07:06:57.351Z,100685.59
2022-11-07T07:09:23.788Z,100691.38
2022-11-07T07:11:50.217Z,100692.92
2022-11-07T07:14:16.631Z,100698.08
2022-11-07T07:16:42.965Z,100707.49
2022-11-07T07:19:11.727Z,100705.03
2022-11-07T07:21:38.513Z,100705.89
2022-11-07T07:24:05.352Z,100703.71
2022-11-07T07:26:31.791Z,100700.48
2022-11-07T07:28:58.204Z,100703.82
2022-11-07T07:31:30.103Z,100698.34
2022-11-07T07:33:57.134Z,100697.23
2022-11-07T07:36:24.696Z,100692.92
2022-11-07T07:38:51.349Z,100691.98
2022-11-07T07:41:18.832Z,100696.67
2022-11-07T07:43:45.710Z,100700.38
2022-11-07T07:46:19.071Z,100698.70
2022-11-07T07:48:45.491Z,100697.04
2022-11-07T07:51:11.801Z,100697.00
2022-11-07T07:53:38.273Z,100697.30
2022-11-07T07:56:06.343Z,100695.23
2022-11-07T07:58:33.177Z,100695.40
2022-11-07T08:01:00.113Z,100693.73
2022-11-07T08:03:32.179Z,100692.64
2022-11-07T08:06:02.649Z,100699.20
2022-11-07T08:08:31.486Z,100693.89
2022-11-07T08:11:04.389Z,100692.88
2022-11-07T08:13:31.045Z,100691.30
2022-11-07T08:15:57.557Z,100690.10
2022-11-07T08:18:24.542Z,100694.21
2022-11-07T08:20:55.696Z,100691.33
2022-11-07T08:23:23.807Z,100689.60
2022-11-07T08:25:53.205Z,100692.25
2022-11-07T08:28:21.682Z,100693.70
2022-11-07T08:31:10.051Z,100696.23
2022-11-07T08:33:36.749Z,100699.13
2022-11-07T08:36:05.095Z,100699.96
2022-11-07T08:38:33.575Z,100706.26
2022-11-07T08:41:00.822Z,100699.61
2022-11-07T08:43:27.274Z,100702.41
2022-11-07T08:45:54.608Z,100709.40
2022-11-07T08:48:22.409Z,100712.35
2022-11-07T08:50:56.401Z,100721.22
2022-11-07T08:53:24.060Z,100720.88
2022-11-07T08:55:50.682Z,100720.48
2022-11-07T08:58:18.577Z,100719.98
2022-11-07T09:00:45.568Z,100721.29
2022-11-07T09:06:00.298Z,100726.54
2022-11-07T09:08:26.783Z,100735.25
2022-11-07T09:10:53.320Z,100737.95
2022-11-07T09:13:22.687Z,100739.09
2022-11-07T09:15:51.419Z,100734.73
2022-11-07T09:18:19.072Z,100739.27
2022-11-07T09:20:45.589Z,100742.29
2022-11-07T09:23:12.155Z,100741.79
2022-11-07T09:25:38.597Z,100746.77
2022-11-07T09:28:05.217Z,100747.25
2022-11-07T09:30:31.960Z,100751.20
2022-11-07T09:32:59.261Z,100754.55
2022-11-07T09:35:25.991Z,100756.83
2022-11-07T09:37:52.595Z,100763.09
2022-11-07T09:40:19.024Z,100764.26
2022-11-07T09:43:00.339Z,100773.58
2022-11-07T09:45:29.449Z,100772.51
2022-11-07T09:48:05.263Z,100771.02
2022-11-07T09:50:40.628Z,100776.92
2022-11-07T09:53:36.876Z,100777.66
2022-11-07T09:56:05.069Z,100779.13
2022-11-07T09:58:41.069Z,100778.55
2022-11-07T10:01:11.802Z,100782.64
2022-11-07T10:03:39.260Z,100788.81
2022-11-07T10:06:24.311Z,100784.38
2022-11-07T10:09:03.013Z,100781.56
2022-11-07T10:11:56.419Z,100786.20
2022-11-07T10:15:03.363Z,100782.60
2022-11-07T10:18:11.250Z,100782.73
2022-11-07T10:21:30.563Z,100783.34
2022-11-07T10:23:49.536Z,100787.14
2022-11-07T10:26:21.430Z,100788.94
2022-11-07T10:28:57.123Z,100789.31
2022-11-07T10:31:31.592Z,100785.21
2022-11-07T10:34:14.441Z,100786.88
2022-11-07T10:36:40.849Z,100789.48
2022-11-07T10:39:15.698Z,100787.10
2022-11-07T10:41:58.533Z,100790.92
2022-11-07T10:44:26.787Z,100791.33
2022-11-07T10:46:54.735Z,100793.27
2022-11-07T10:49:30.411Z,100792.20
2022-11-07T10:52:17.133Z,100791.60
2022-11-07T10:54:46.487Z,100788.77
2022-11-07T10:57:17.131Z,100785.52
2022-11-07T10:59:49.355Z,100787.91
2022-11-07T11:02:24.890Z,100787.44
2022-11-07T11:05:02.504Z,100782.23
2022-11-07T11:07:40.075Z,100781.50
2022-11-07T11:10:21.964Z,100778.40
2022-11-07T11:12:49.306Z,100778.88
2022-11-07T11:15:20.772Z,100778.04
2022-11-07T11:18:06.149Z,100779.57
2022-11-07T11:20:37.402Z,100773.55
2022-11-07T11:23:13.284Z,100764.04
2022-11-07T11:25:45.680Z,100767.10
2022-11-07T11:28:26.792Z,100776.50
2022-11-07T11:31:10.124Z,100776.04
2022-11-07T11:33:44.242Z,100778.35
2022-11-07T11:36:21.257Z,100776.13
2022-11-07T11:38:54.476Z,100777.80
2022-11-07T11:41:48.143Z,100775.90
2022-11-07T11:44:39.112Z,100778.65
2022-11-07T11:47:28.110Z,100779.40
2022-11-07T11:50:04.834Z,100777.63
2022-11-07T11:52:31.414Z,100775.42
2022-11-07T11:54:58.741Z,100768.49
2022-11-07T11:57:48.607Z,100770.14
2022-11-07T12:00:24.618Z,100769.81
2022-11-07T12:03:11.208Z,100772.08
2022-11-07T12:06:16.278Z,100770.69
2022-11-07T12:08:54.997Z,100762.92
2022-11-07T12:11:45.497Z,100765.75
2022-11-07T12:14:23.895Z,100763.57
2022-11-07T12:17:15.223Z,100765.10
2022-11-07T12:20:02.174Z,100767.06
2022-11-07T12:22:34.649Z,100765.70
2022-11-07T12:25:09.577Z,100769.23
2022-11-07T12:27:45.348Z,100769.19
2022-11-07T12:30:11.723Z,100769.67
2022-11-07T12:32:47.256Z,100767.13
2022-11-07T12:35:43.102Z,100764.48
2022-11-07T12:38:31.688Z,100761.73
2022-11-07T12:40:58.479Z,100763.46
2022-11-07T12:43:56.941Z,100762.85
2022-11-07T12:46:34.324Z,100765.83
2022-11-07T12:49:16.035Z,100770.02
2022-11-07T12:51:42.428Z,100764.14
2022-11-07T12:54:28.441Z,100772.87
2022-11-07T12:56:56.826Z,100775.03
2022-11-07T12:59:26.724Z,100774.58
2022-11-07T13:02:02.480Z,100765.89
2022-11-07T13:05:13.648Z,100764.09
2022-11-07T13:07:49.430Z,100760.55
2022-11-07T13:10:18.888Z,100756.33
2022-11-07T13:13:04.392Z,100758.48
2022-11-07T13:15:47.478Z,100761.17
2022-11-07T13:18:26.390Z,100768.14
2022-11-07T13:21:04.865Z,100764.50
2022-11-07T13:23:32.244Z,100766.08
2022-11-07T13:26:25.973Z,100769.81
2022-11-07T13:28:59.458Z,100772.61
2022-11-07T13:31:32.022Z,100774.13
2022-11-07T13:34:18.741Z,100776.54
2022-11-07T13:36:47.576Z,100774.88
2022-11-07T13:39:15.228Z,100778.24
2022-11-07T13:41:45.728Z,100775.79
2022-11-07T13:44:27.544Z,100775.91
2022-11-07T13:46:58.763Z,100775.61
2022-11-07T13:49:32.988Z,100778.94
2022-11-07T13:52:09.634Z,100784.47
2022-11-07T13:54:49.828Z,100786.81
2022-11-07T13:57:28.063Z,100780.61
2022-11-07T14:00:01.022Z,100781.07
2022-11-07T14:02:30.498Z,100778.88
2022-11-07T14:05:18.054Z,100776.73
2022-11-07T14:08:15.644Z,100778.15
2022-11-07T14:10:47.330Z,100784.50
2022-11-07T14:13:22.271Z,100781.58
2022-11-07T14:15:52.888Z,100779.79
2022-11-07T14:18:21.724Z,100776.82
2022-11-07T14:20:54.356Z,100781.45
2022-11-07T14:23:26.516Z,100784.92
2022-11-07T14:26:04.371Z,100796.43
2022-11-07T14:28:36.143Z,100796.73
2022-11-07T14:31:05.973Z,100795.26
2022-11-07T14:33:32.584Z,100790.89
2022-11-07T14:36:05.233Z,100788.84
2022-11-07T14:38:31.896Z,100779.75
2022-11-07T14:41:01.148Z,100779.30
2022-11-07T14:43:30.343Z,100781.94
2022-11-07T14:46:18.157Z,100782.09
2022-11-07T14:48:47.251Z,100781.83
2022-11-07T14:51:17.179Z,100779.73
2022-11-07T14:54:01.512Z,100782.85
2022-11-07T14:56:44.551Z,100781.04
2022-11-07T14:59:13.778Z,100776.75
2022-11-07T15:01:55.335Z,100774.00
2022-11-07T15:04:35.812Z,100774.04
2022-11-07T15:07:17.319Z,100775.16
2022-11-07T15:09:43.792Z,100771.94
2022-11-07T15:12:17.280Z,100767.66
2022-11-07T15:14:44.714Z,100771.68
2022-11-07T15:17:23.739Z,100772.30
2022-11-07T15:20:00.221Z,100773.64
2022-11-07T15:22:38.012Z,100775.34
2022-11-07T15:25:24.543Z,100773.95
2022-11-07T15:27:50.955Z,100781.45
2022-11-07T15:30:32.483Z,100777.88
2022-11-07T15:32:59.801Z,100773.70
2022-11-07T15:38:28.063Z,100769.65
2022-11-07T15:40:54.959Z,100770.02
2022-11-07T15:43:21.867Z,100769.10
2022-11-07T15:45:51.353Z,100773.27
2022-11-07T15:48:21.943Z,100775.67
2022-11-07T15:50:48.990Z,100773.48
2022-11-07T15:53:27.999Z,100773.61
2022-11-07T15:55:57.284Z,100770.86
2022-11-07T15:58:26.464Z,100770.48
2022-11-07T16:00:53.829Z,100771.33
2022-11-07T16:03:22.710Z,100770.88
2022-11-07T16:05:51.492Z,100768.84
2022-11-07T16:08:21.753Z,100768.60
2022-11-07T16:10:51.095Z,100769.41
2022-11-07T16:13:17.626Z,100768.89
2022-11-07T16:15:49.143Z,100773.59
2022-11-07T16:18:18.432Z,100777.53
2022-11-07T16:20:46.863Z,100775.11
2022-11-07T16:23:14.131Z,100780.13
2022-11-07T16:25:42.648Z,100780.36
2022-11-07T16:28:35.191Z,100784.89
2022-11-07T16:31:02.139Z,100785.69
2022-11-07T16:33:29.649Z,100786.52
2022-11-07T16:35:59.481Z,100786.36
2022-11-07T16:38:29.199Z,100784.80
2022-11-07T16:40:58.200Z,100783.34
2022-11-07T16:43:24.700Z,100783.70
2022-11-07T16:45:55.268Z,100778.41
2022-11-07T16:48:23.421Z,100780.24
2022-11-07T16:50:51.035Z,100785.83
2022-11-07T16:53:18.117Z,100788.32
2022-11-07T16:55:53.087Z,100787.25
2022-11-07T16:58:29.079Z,100785.85
2022-11-07T17:00:58.535Z,100779.94
2022-11-07T17:03:25.986Z,100783.38
2022-11-07T17:05:58.036Z,100791.45
2022-11-07T17:08:37.133Z,100795.80
2022-11-07T17:11:04.835Z,100798.98
2022-11-07T17:13:31.366Z,100794.45
2022-11-07T17:15:57.988Z,100792.16
2022-11-07T17:18:26.695Z,100795.01
2022-11-07T17:20:53.844Z,100793.34
2022-11-07T17:23:26.796Z,100797.95
2022-11-07T17:25:55.383Z,100800.35
2022-11-07T17:28:22.769Z,100798.14
2022-11-07T17:30:49.310Z,100799.14
2022-11-07T17:33:16.148Z,100794.15
2022-11-07T17:35:42.686Z,100793.00
2022-11-07T17:38:18.858Z,100789.59
2022-11-07T17:40:45.997Z,100796.41
2022-11-07T17:43:12.377Z,100799.34
2022-11-07T17:45:39.654Z,100800.67
2022-11-07T17:48:06.177Z,100798.63
2022-11-07T17:50:32.653Z,100803.25
2022-11-07T17:52:59.702Z,100803.36
2022-11-07T17:55:26.244Z,100807.89
2022-11-07T17:57:53.465Z,100806.92
2022-11-07T18:00:23.100Z,100806.00
2022-11-07T18:02:51.580Z,100806.34
2022-11-07T18:05:21.668Z,100805.19
2022-11-07T18:07:48.693Z,100802.10
2022-11-07T18:10:16.035Z,100805.42
2022-11-07T18:12:43.125Z,100799.92
2022-11-07T18:15:11.998Z,100802.65
2022-11-07T18:17:39.470Z,100803.37
2022-11-07T18:20:07.844Z,100809.71
2022-11-07T18:22:36.412Z,100808.02
2022-11-07T18:25:07.311Z,100808.30
2022-11-07T18:27:34.434Z,100811.01
2022-11-07T18:30:02.392Z,100809.41
2022-11-07T18:32:35.528Z,100807.13
2022-11-07T18:35:05.401Z,100804.76
2022-11-07T18:37:31.812Z,100804.50
2022-11-07T18:39:58.283Z,100804.61
2022-11-07T18:42:24.708Z,100804.84
2022-11-07T18:44:51.574Z,100801.80
2022-11-07T18:47:17.976Z,100804.20
2022-11-07T18:49:44.442Z,100805.36
2022-11-07T18:52:10.860Z,100807.27
2022-11-07T18:54:37.363Z,100815.73
2022-11-07T18:57:03.856Z,100817.03
2022-11-07T18:59:30.301Z,100815.02
2022-11-07T19:01:56.762Z,100811.98
2022-11-07T19:04:23.497Z,100810.46
2022-11-07T19:06:59.058Z,100809.89
2022-11-07T19:09:29.362Z,100811.94
2022-11-07T19:11:57.804Z,100815.91
2022-11-07T19:14:26.020Z,100819.83
2022-11-07T19:16:53.202Z,100821.27
2022-11-07T19:19:19.689Z,100822.51
2022-11-07T19:21:46.140Z,100821.23
2022-11-07T19:24:12.845Z,100816.41
2022-11-07T19:26:39.855Z,100816.68
2022-11-07T19:29:10.729Z,100813.55
2022-11-07T19:31:37.882Z,100812.09
2022-11-07T19:34:05.038Z,100813.55
2022-11-07T19:36:32.133Z,100815.81
2022-11-07T19:38:58.820Z,100812.98
2022-11-07T19:41:25.520Z,100815.34
2022-11-07T19:43:52.018Z,100821.01
2022-11-07T19:46:21.152Z,100821.18
2022-11-07T19:48:48.817Z,100824.70
2022-11-07T19:51:22.144Z,100826.33
2022-11-07T19:53:57.628Z,100825.66
2022-11-07T19:56:26.251Z,100829.75
2022-11-07T19:58:53.814Z,100826.60
2022-11-07T20:01:24.110Z,100829.70
2022-11-07T20:03:52.239Z,100829.13
2022-11-07T20:06:22.324Z,100833.25
2022-11-07T20:08:49.533Z,100835.20
2022-11-07T20:11:19.251Z,100833.36
2022-11-07T20:13:46.418Z,100838.06
2022-11-07T20:16:14.257Z,100839.99
2022-11-07T20:18:41.391Z,100839.89
2022-11-07T20:21:12.537Z,100838.97
2022-11-07T20:23:40.450Z,100842.08
2022-11-07T20:26:13.476Z,100841.48
2022-11-07T20:28:40.032Z,100844.79
2022-11-07T20:31:14.875Z,100844.69
2022-11-07T20:33:42.011Z,100850.86
2022-11-07T20:36:12.336Z,100848.33
2022-11-07T20:38:40.195Z,100851.80
2022-11-07T20:41:07.148Z,100850.95
2022-11-07T20:43:33.836Z,100850.55
2022-11-07T20:46:05.396Z,100849.79
2022-11-07T20:48:32.594Z,100845.77
2022-11-07T20:51:09.474Z,100841.14
2022-11-07T20:53:37.768Z,100844.61
2022-11-07T20:56:06.137Z,100850.39
2022-11-07T20:58:34.727Z,100847.20
2022-11-07T21:01:01.838Z,100848.81
2022-11-07T21:03:28.545Z,100853.98
2022-11-07T21:05:55.139Z,100847.70
2022-11-07T21:08:21.780Z,100846.28
2022-11-07T21:10:49.912Z,100851.41
2022-11-07T21:13:17.174Z,100853.43
2022-11-07T21:15:44.663Z,100852.28
2022-11-07T21:18:12.435Z,100853.66
2022-11-07T21:20:40.001Z,100851.91
2022-11-07T21:23:07.756Z,100855.60
2022-11-07T21:25:42.280Z,100853.88
2022-11-07T21:28:16.456Z,100850.27
2022-11-07T21:31:00.992Z,100852.86
2022-11-07T21:33:27.897Z,100850.63
2022-11-07T21:35:54.464Z,100847.09
2022-11-07T21:38:23.204Z,100848.67
2022-11-07T21:40:50.225Z,100851.89
2022-11-07T21:43:16.887Z,100850.77
2022-11-07T21:45:44.262Z,100853.39
2022-11-07T21:48:10.746Z,100850.45
2022-11-07T21:50:45.273Z,100849.91
2022-11-07T21:53:12.637Z,100849.15
2022-11-07T21:55:39.111Z,100851.02
2022-11-07T21:58:05.851Z,100849.25
2022-11-07T22:00:36.317Z,100849.11
2022-11-07T22:03:04.460Z,100847.48
2022-11-07T22:05:31.016Z,100848.25
2022-11-07T22:07:58.359Z,100847.14
2022-11-07T22:10:24.880Z,100847.68
2022-11-07T22:12:52.238Z,100847.05
2022-11-07T22:15:18.876Z,100847.15
2022-11-07T22:17:45.308Z,100844.50
2022-11-07T22:20:12.460Z,100847.27
2022-11-07T22:22:38.894Z,100848.73
2022-11-07T22:25:06.045Z,100849.08
2022-11-07T22:27:32.477Z,100854.23
2022-11-07T22:29:59.014Z,100857.41
2022-11-07T22:32:25.462Z,100859.11
2022-11-07T22:34:51.983Z,100858.14
2022-11-07T22:37:18.419Z,100858.05
2022-11-07T22:39:44.953Z,100857.55
2022-11-07T22:42:11.390Z,100858.30
2022-11-07T22:44:38.029Z,100861.15
2022-11-07T22:47:04.528Z,100863.48
2022-11-07T22:49:30.971Z,100862.65
2022-11-07T22:51:57.430Z,100864.59
2022-11-07T22:54:23.864Z,100866.66
2022-11-07T22:56:50.401Z,100868.75
2022-11-07T22:59:16.937Z,100864.77
2022-11-07T23:01:43.555Z,100870.58
2022-11-07T23:04:15.159Z,100866.69
2022-11-07T23:06:41.719Z,100870.94
2022-11-07T23:09:10.147Z,100869.06
2022-11-07T23:11:51.855Z,100873.66
2022-11-07T23:14:20.834Z,100871.52
2022-11-07T23:16:52.705Z,100874.70
2022-11-07T23:19:22.834Z,100873.70
2022-11-07T23:21:50.789Z,100873.94
2022-11-07T23:24:18.081Z,100874.75
2022-11-07T23:26:44.573Z,100874.48
2022-11-07T23:29:16.900Z,100871.04
2022-11-07T23:31:46.425Z,100871.05
2022-11-07T23:34:13.809Z,100875.05
2022-11-07T23:36:43.211Z,100876.79
2022-11-07T23:39:14.970Z,100873.39
2022-11-07T23:41:42.325Z,100876.89
2022-11-07T23:44:09.712Z,100873.45
2022-11-07T23:46:55.533Z,100882.48
2022-11-07T23:49:54.158Z,100881.05
2022-11-07T23:52:20.797Z,100881.49
2022-11-07T23:55:06.735Z,100881.92
2022-11-07T23:57:54.996Z,100885.16
